createdAt,value
2018-08-22T00:00:34.009Z,4.83
2018-08-22T00:03:00.738Z,4.23
2018-08-22T00:05:27.428Z,4.37
2018-08-22T00:07:53.425Z,5.87
2018-08-22T00:10:19.390Z,5.13
2018-08-22T00:12:45.391Z,4.60
2018-08-22T00:15:11.411Z,4.67
2018-08-22T00:17:38.101Z,4.47
2018-08-22T00:20:04.054Z,5.07
2018-08-22T00:22:30.120Z,4.90
2018-08-22T00:24:56.041Z,4.63
2018-08-22T00:27:22.020Z,4.50
2018-08-22T00:29:47.970Z,4.10
2018-08-22T00:32:13.917Z,4.20
2018-08-22T00:34:39.920Z,4.40
2018-08-22T00:37:05.898Z,4.23
2018-08-22T00:39:32.635Z,4.80
2018-08-22T00:41:58.589Z,4.13
2018-08-22T00:44:24.577Z,4.30
2018-08-22T00:46:51.276Z,4.63
2018-08-22T00:49:17.248Z,4.50
2018-08-22T00:51:43.952Z,4.73
2018-08-22T00:54:09.941Z,4.70
2018-08-22T00:56:35.893Z,4.67
2018-08-22T00:59:01.902Z,4.20
2018-08-22T01:01:27.865Z,4.17
2018-08-22T01:03:53.890Z,4.50
2018-08-22T01:06:19.840Z,4.47
2018-08-22T01:08:45.833Z,4.40
2018-08-22T01:11:11.797Z,4.23
2018-08-22T01:13:37.749Z,4.40
2018-08-22T01:16:03.729Z,4.70
2018-08-22T01:18:29.702Z,4.80
2018-08-22T01:20:55.684Z,4.57
2018-08-22T01:23:21.662Z,4.60
2018-08-22T01:25:47.688Z,4.43
2018-08-22T01:28:13.636Z,4.67
2018-08-22T01:30:40.349Z,5.23
2018-08-22T01:33:06.354Z,4.77
2018-08-22T01:35:32.313Z,4.17
2018-08-22T01:37:59.015Z,5.23
2018-08-22T01:40:24.975Z,4.73
2018-08-22T01:42:51.703Z,4.90
2018-08-22T01:45:17.665Z,4.77
2018-08-22T01:47:43.663Z,5.33
2018-08-22T01:50:10.373Z,4.90
2018-08-22T01:52:36.351Z,4.63
2018-08-22T01:55:02.343Z,5.37
2018-08-22T01:57:29.037Z,5.07
2018-08-22T01:59:55.178Z,4.70
2018-08-22T02:02:21.134Z,4.33
2018-08-22T02:04:47.110Z,4.70
2018-08-22T02:07:13.081Z,4.87
2018-08-22T02:09:39.796Z,4.97
2018-08-22T02:12:05.765Z,4.80
2018-08-22T02:14:31.719Z,4.70
2018-08-22T02:16:57.686Z,5.07
2018-08-22T02:19:23.640Z,5.33
2018-08-22T02:21:49.611Z,5.47
2018-08-22T02:24:15.580Z,5.07
2018-08-22T02:26:41.573Z,5.40
2018-08-22T02:29:07.537Z,5.47
2018-08-22T02:31:33.536Z,5.30
2018-08-22T02:34:00.264Z,5.37
2018-08-22T02:36:26.963Z,5.70
2018-08-22T02:38:53.686Z,5.20
2018-08-22T02:41:19.666Z,5.27
2018-08-22T02:43:46.402Z,5.40
2018-08-22T02:46:13.121Z,4.87
2018-08-22T02:48:39.089Z,5.20
2018-08-22T02:51:05.766Z,4.80
2018-08-22T02:53:31.756Z,5.43
2018-08-22T02:55:57.743Z,5.70
2018-08-22T02:58:23.727Z,5.23
2018-08-22T03:00:49.725Z,5.53
2018-08-22T03:03:15.705Z,5.10
2018-08-22T03:05:41.673Z,5.23
2018-08-22T03:08:07.652Z,6.00
2018-08-22T03:10:33.650Z,5.40
2018-08-22T03:12:59.617Z,5.63
2018-08-22T03:15:26.412Z,6.73
2018-08-22T03:17:52.391Z,5.87
2018-08-22T03:20:18.356Z,5.70
2018-08-22T03:22:44.343Z,5.90
2018-08-22T03:25:11.044Z,5.67
2018-08-22T03:27:37.041Z,6.10
2018-08-22T03:30:03.005Z,5.80
2018-08-22T03:32:29.000Z,5.30
2018-08-22T03:34:54.956Z,4.97
2018-08-22T03:37:20.991Z,5.63
2018-08-22T03:39:47.032Z,6.13
2018-08-22T03:42:12.979Z,5.57
2018-08-22T03:44:38.963Z,5.67
2018-08-22T03:47:04.937Z,5.33
2018-08-22T03:49:30.952Z,4.90
2018-08-22T03:51:56.932Z,5.50
2018-08-22T03:54:23.666Z,5.53
2018-08-22T03:56:50.372Z,5.23
2018-08-22T03:59:16.361Z,5.73
2018-08-22T04:01:42.327Z,5.20
2018-08-22T04:04:08.335Z,5.90
2018-08-22T04:06:34.305Z,5.60
2018-08-22T04:09:01.026Z,5.97
2018-08-22T04:11:26.985Z,6.30
2018-08-22T04:13:52.987Z,6.80
2018-08-22T04:16:19.706Z,6.20
2018-08-22T04:18:45.678Z,6.93
2018-08-22T04:21:11.686Z,6.50
2018-08-22T04:23:37.658Z,6.30
2018-08-22T04:26:03.683Z,6.37
2018-08-22T04:28:29.635Z,6.00
2018-08-22T04:30:55.650Z,6.10
2018-08-22T04:33:21.608Z,5.50
2018-08-22T04:35:47.585Z,6.37
2018-08-22T04:38:13.561Z,6.20
2018-08-22T04:40:39.502Z,5.30
2018-08-22T04:43:05.496Z,5.70
2018-08-22T04:45:31.477Z,8.33
2018-08-22T04:47:57.467Z,7.50
2018-08-22T04:50:23.472Z,6.73
2018-08-22T04:52:49.467Z,6.47
2018-08-22T04:55:15.417Z,6.40
2018-08-22T04:57:41.401Z,6.30
2018-08-22T05:00:07.433Z,6.23
2018-08-22T05:02:34.153Z,6.03
2018-08-22T05:05:00.143Z,6.10
2018-08-22T05:07:26.097Z,6.10
2018-08-22T05:09:52.098Z,6.80
2018-08-22T05:12:18.195Z,5.63
2018-08-22T05:14:44.249Z,6.53
2018-08-22T05:17:10.225Z,6.40
2018-08-22T05:19:36.892Z,6.33
2018-08-22T05:22:02.853Z,6.00
2018-08-22T05:24:28.811Z,5.97
2018-08-22T05:26:55.531Z,6.30
2018-08-22T05:29:21.479Z,6.63
2018-08-22T05:31:48.189Z,6.17
2018-08-22T05:34:14.158Z,5.63
2018-08-22T05:36:40.154Z,6.10
2018-08-22T05:39:06.861Z,6.00
2018-08-22T05:41:32.827Z,6.20
2018-08-22T05:43:59.533Z,6.07
2018-08-22T05:46:25.494Z,5.23
2018-08-22T05:48:52.220Z,5.43
2018-08-22T05:51:18.146Z,5.73
2018-08-22T05:53:44.866Z,5.83
2018-08-22T05:56:10.833Z,5.60
2018-08-22T05:58:36.803Z,5.87
2018-08-22T06:01:02.762Z,5.57
2018-08-22T06:03:29.472Z,5.70
2018-08-22T06:05:55.425Z,5.07
2018-08-22T06:08:21.409Z,5.17
2018-08-22T06:10:47.379Z,5.23
2018-08-22T06:13:13.356Z,5.50
2018-08-22T06:15:39.345Z,5.17
2018-08-22T06:18:05.287Z,4.97
2018-08-22T06:20:31.260Z,5.17
2018-08-22T06:22:57.221Z,4.87
2018-08-22T06:25:23.259Z,4.70
2018-08-22T06:27:49.237Z,5.10
2018-08-22T06:30:15.927Z,4.37
2018-08-22T06:32:41.861Z,4.17
2018-08-22T06:35:07.830Z,4.00
2018-08-22T06:37:34.511Z,4.30
2018-08-22T06:40:00.515Z,4.07
2018-08-22T06:42:26.467Z,4.00
2018-08-22T06:44:52.457Z,3.57
2018-08-22T06:47:18.409Z,4.07
2018-08-22T06:49:44.362Z,3.60
2018-08-22T06:52:11.094Z,3.30
2018-08-22T06:54:37.038Z,3.40
2018-08-22T06:57:03.764Z,3.00
2018-08-22T06:59:30.456Z,3.67
2018-08-22T07:01:56.446Z,3.20
2018-08-22T07:04:22.397Z,3.30
2018-08-22T07:06:48.390Z,3.10
2018-08-22T07:09:15.112Z,3.20
2018-08-22T07:11:41.812Z,2.90
2018-08-22T07:14:07.800Z,2.83
2018-08-22T07:16:34.498Z,3.20
2018-08-22T07:19:00.501Z,2.90
2018-08-22T07:21:26.450Z,3.10
2018-08-22T07:23:53.177Z,2.67
2018-08-22T07:26:19.139Z,2.35
2018-08-22T07:28:45.140Z,2.60
2018-08-22T07:31:11.841Z,2.60
2018-08-22T07:33:37.824Z,2.60
2018-08-22T07:36:04.521Z,2.75
2018-08-22T07:38:30.508Z,2.55
2018-08-22T07:40:57.209Z,2.20
2018-08-22T07:43:23.154Z,2.30
2018-08-22T07:45:49.139Z,2.25
2018-08-22T07:48:15.100Z,2.20
2018-08-22T07:50:41.087Z,2.22
2018-08-22T07:53:07.041Z,2.03
2018-08-22T07:55:33.013Z,2.28
2018-08-22T07:57:58.970Z,1.90
2018-08-22T08:00:25.713Z,2.05
2018-08-22T08:02:52.441Z,1.98
2018-08-22T08:05:18.461Z,2.05
2018-08-22T08:07:44.379Z,2.05
2018-08-22T08:10:10.343Z,2.05
2018-08-22T08:12:37.024Z,1.87
2018-08-22T08:15:02.985Z,2.10
2018-08-22T08:17:29.696Z,2.03
2018-08-22T08:19:55.644Z,1.90
2018-08-22T08:22:22.350Z,1.50
2018-08-22T08:24:48.294Z,2.10
2018-08-22T08:27:14.281Z,2.25
2018-08-22T08:29:40.237Z,2.30
2018-08-22T08:32:06.221Z,2.20
2018-08-22T08:34:32.164Z,2.40
2018-08-22T08:36:58.094Z,1.83
2018-08-22T08:39:24.050Z,2.15
2018-08-22T08:41:50.756Z,2.15
2018-08-22T08:44:16.747Z,2.22
2018-08-22T08:46:42.715Z,2.28
2018-08-22T08:49:08.718Z,2.20
2018-08-22T08:51:34.682Z,2.20
2018-08-22T08:54:07.538Z,2.22
2018-08-22T08:56:33.546Z,2.35
2018-08-22T08:58:59.480Z,2.53
2018-08-22T09:01:25.472Z,2.45
2018-08-22T09:03:51.478Z,2.33
2018-08-22T09:06:17.406Z,2.35
2018-08-22T09:08:43.370Z,2.40
2018-08-22T09:11:09.347Z,2.80
2018-08-22T09:13:35.294Z,2.53
2018-08-22T09:16:01.279Z,2.22
2018-08-22T09:18:27.240Z,2.40
2018-08-22T09:20:53.201Z,2.47
2018-08-22T09:23:19.188Z,2.80
2018-08-22T09:25:45.119Z,2.42
2018-08-22T09:28:11.165Z,2.85
2018-08-22T09:30:37.092Z,2.80
2018-08-22T09:33:03.816Z,2.45
2018-08-22T09:35:29.781Z,3.12
2018-08-22T09:37:55.761Z,2.95
2018-08-22T09:40:21.707Z,2.45
2018-08-22T09:42:47.648Z,2.50
2018-08-22T09:45:13.616Z,2.53
2018-08-22T09:47:39.598Z,2.10
2018-08-22T09:50:05.577Z,2.58
2018-08-22T09:52:31.528Z,1.95
2018-08-22T09:54:58.240Z,2.45
2018-08-22T09:57:24.196Z,2.35
2018-08-22T09:59:50.156Z,2.08
2018-08-22T10:02:16.125Z,2.60
2018-08-22T10:04:42.064Z,2.28
2018-08-22T10:07:08.848Z,2.05
2018-08-22T10:09:35.495Z,2.83
2018-08-22T10:12:01.468Z,2.53
2018-08-22T10:14:28.143Z,2.70
2018-08-22T10:16:54.130Z,2.30
2018-08-22T10:19:20.089Z,2.33
2018-08-22T10:21:46.062Z,2.80
2018-08-22T10:24:12.797Z,2.72
2018-08-22T10:26:39.581Z,2.60
2018-08-22T10:29:05.487Z,3.10
2018-08-22T10:31:31.435Z,2.70
2018-08-22T10:33:57.424Z,2.50
2018-08-22T10:36:23.399Z,2.30
2018-08-22T10:38:49.374Z,2.08
2018-08-22T10:41:15.336Z,2.70
2018-08-22T10:43:41.303Z,2.40
2018-08-22T10:46:08.006Z,2.05
2018-08-22T10:48:33.990Z,2.40
2018-08-22T10:50:59.929Z,2.00
2018-08-22T10:53:25.920Z,2.28
2018-08-22T10:55:52.607Z,2.35
2018-08-22T10:58:18.586Z,2.58
2018-08-22T11:00:45.270Z,1.90
2018-08-22T11:03:11.230Z,2.33
2018-08-22T11:05:37.966Z,1.87
2018-08-22T11:08:03.908Z,2.33
2018-08-22T11:10:30.627Z,2.10
2018-08-22T11:12:57.343Z,2.20
2018-08-22T11:15:23.320Z,2.25
2018-08-22T11:17:49.278Z,2.35
2018-08-22T11:20:15.262Z,1.73
2018-08-22T11:22:41.221Z,2.17
2018-08-22T11:25:07.216Z,2.15
2018-08-22T11:27:33.192Z,1.95
2018-08-22T11:29:59.138Z,2.00
2018-08-22T11:32:25.861Z,2.08
2018-08-22T11:34:51.829Z,2.10
2018-08-22T11:37:17.818Z,2.10
2018-08-22T11:39:43.773Z,2.15
2018-08-22T11:42:09.752Z,2.30
2018-08-22T11:44:35.714Z,2.30
2018-08-22T11:47:01.716Z,2.12
2018-08-22T11:49:28.434Z,2.05
2018-08-22T11:51:55.159Z,2.50
2018-08-22T11:54:21.141Z,2.10
2018-08-22T11:56:47.839Z,2.65
2018-08-22T11:59:13.821Z,2.70
2018-08-22T12:01:39.764Z,2.53
2018-08-22T12:04:05.749Z,2.50
2018-08-22T12:06:31.713Z,2.90
2018-08-22T12:08:57.701Z,3.00
2018-08-22T12:11:23.644Z,2.60
2018-08-22T12:13:49.604Z,2.87
2018-08-22T12:16:15.596Z,2.53
2018-08-22T12:18:41.554Z,2.50
2018-08-22T12:21:07.544Z,2.65
2018-08-22T12:23:33.505Z,2.72
2018-08-22T12:26:00.222Z,3.47
2018-08-22T12:28:26.181Z,2.90
2018-08-22T12:30:52.185Z,2.80
2018-08-22T12:33:18.165Z,2.35
2018-08-22T12:35:44.150Z,2.80
2018-08-22T12:38:10.839Z,2.65
2018-08-22T12:40:36.823Z,2.45
2018-08-22T12:43:02.797Z,2.62
2018-08-22T12:45:28.796Z,3.00
2018-08-22T12:47:54.746Z,2.78
2018-08-22T12:50:20.728Z,2.62
2018-08-22T12:52:46.682Z,2.75
2018-08-22T12:55:12.661Z,2.87
2018-08-22T12:57:38.742Z,3.08
2018-08-22T13:00:04.847Z,3.12
2018-08-22T13:02:30.807Z,3.50
2018-08-22T13:04:56.766Z,2.92
2018-08-22T13:07:22.738Z,3.20
2018-08-22T13:09:48.716Z,3.22
2018-08-22T13:12:14.776Z,4.00
2018-08-22T13:14:40.721Z,3.25
2018-08-22T13:17:06.800Z,3.20
2018-08-22T13:19:32.696Z,3.28
2018-08-22T13:21:58.689Z,3.40
2018-08-22T13:24:24.653Z,2.78
2018-08-22T13:26:50.623Z,2.80
2018-08-22T13:29:16.656Z,2.97
2018-08-22T13:31:42.604Z,3.45
2018-08-22T13:34:09.323Z,2.90
2018-08-22T13:36:35.274Z,3.10
2018-08-22T13:39:01.280Z,2.83
2018-08-22T13:41:28.016Z,3.20
2018-08-22T13:43:53.977Z,3.42
2018-08-22T13:46:19.946Z,3.17
2018-08-22T13:48:45.934Z,3.30
2018-08-22T13:51:11.879Z,3.60
2018-08-22T13:53:37.839Z,3.42
2018-08-22T13:56:04.641Z,3.00
2018-08-22T13:58:30.538Z,3.40
2018-08-22T14:00:57.251Z,3.67
2018-08-22T14:03:23.236Z,3.45
2018-08-22T14:05:49.224Z,3.60
2018-08-22T14:08:15.201Z,3.95
2018-08-22T14:10:41.290Z,3.83
2018-08-22T14:13:07.238Z,4.25
2018-08-22T14:15:33.218Z,4.05
2018-08-22T14:17:59.239Z,3.70
2018-08-22T14:20:25.208Z,3.90
2018-08-22T14:22:51.184Z,4.05
2018-08-22T14:25:17.149Z,4.12
2018-08-22T14:27:43.158Z,3.80
2018-08-22T14:30:09.127Z,4.20
2018-08-22T14:32:35.832Z,4.70
2018-08-22T14:35:02.585Z,4.30
2018-08-22T14:37:28.545Z,3.57
2018-08-22T14:39:54.521Z,3.90
2018-08-22T14:42:20.465Z,4.23
2018-08-22T14:44:46.533Z,4.20
2018-08-22T14:47:12.431Z,4.33
2018-08-22T14:49:38.419Z,3.73
2018-08-22T14:52:04.381Z,3.90
2018-08-22T14:54:30.376Z,3.90
2018-08-22T14:56:57.097Z,4.10
2018-08-22T14:59:23.053Z,4.57
2018-08-22T15:01:49.784Z,4.87
2018-08-22T15:04:15.780Z,4.00
2018-08-22T15:06:41.782Z,4.43
2018-08-22T15:09:07.745Z,4.10
2018-08-22T15:11:34.506Z,3.83
2018-08-22T15:14:01.203Z,4.47
2018-08-22T15:16:27.143Z,3.87
2018-08-22T15:18:53.114Z,4.27
2018-08-22T15:21:19.075Z,4.50
2018-08-22T15:23:45.061Z,4.13
2018-08-22T15:26:11.034Z,3.60
2018-08-22T15:28:37.020Z,4.13
2018-08-22T15:31:02.981Z,4.53
2018-08-22T15:33:29.716Z,4.60
2018-08-22T15:35:55.694Z,5.63
2018-08-22T15:38:21.658Z,4.73
2018-08-22T15:40:47.613Z,4.97
2018-08-22T15:43:13.644Z,5.27
2018-08-22T15:45:39.614Z,6.63
2018-08-22T15:48:05.606Z,5.13
2018-08-22T15:50:31.591Z,6.50
2018-08-22T15:52:58.833Z,6.70
2018-08-22T15:55:25.554Z,6.23
2018-08-22T15:57:51.535Z,6.77
2018-08-22T16:00:17.525Z,6.50
2018-08-22T16:02:44.229Z,6.60
2018-08-22T16:05:10.182Z,6.87
2018-08-22T16:07:36.144Z,7.07
2018-08-22T16:10:02.105Z,9.10
2018-08-22T16:12:28.087Z,8.73
2018-08-22T16:14:54.050Z,6.67
2018-08-22T16:17:20.026Z,8.60
2018-08-22T16:19:45.968Z,8.63
2018-08-22T16:22:11.954Z,8.57
2018-08-22T16:24:37.944Z,7.73
2018-08-22T16:27:03.929Z,7.93
2018-08-22T16:29:29.877Z,8.83
2018-08-22T16:31:55.868Z,7.60
2018-08-22T16:34:21.832Z,9.20
2018-08-22T16:36:47.835Z,9.13
2018-08-22T16:39:13.804Z,9.40
2018-08-22T16:41:39.782Z,8.53
2018-08-22T16:44:05.739Z,8.87
2018-08-22T16:46:31.698Z,7.67
2018-08-22T16:48:57.689Z,8.43
2018-08-22T16:51:23.688Z,8.33
2018-08-22T16:53:49.644Z,7.73
2018-08-22T16:56:16.324Z,8.57
2018-08-22T16:58:42.278Z,7.93
2018-08-22T17:01:08.246Z,7.77
2018-08-22T17:03:34.949Z,6.87
2018-08-22T17:06:00.942Z,8.33
2018-08-22T17:08:26.894Z,7.73
2018-08-22T17:10:52.880Z,6.80
2018-08-22T17:13:18.826Z,7.60
2018-08-22T17:15:44.824Z,6.80
2018-08-22T17:18:10.771Z,7.50
2018-08-22T17:20:36.755Z,8.53
2018-08-22T17:23:02.719Z,6.43
2018-08-22T17:25:28.690Z,8.30
2018-08-22T17:27:55.387Z,7.23
2018-08-22T17:30:21.356Z,7.70
2018-08-22T17:32:47.368Z,7.40
2018-08-22T17:35:14.079Z,6.87
2018-08-22T17:37:40.046Z,8.13
2018-08-22T17:40:06.731Z,7.83
2018-08-22T17:42:32.733Z,8.63
2018-08-22T17:44:58.683Z,6.93
2018-08-22T17:47:24.676Z,7.60
2018-08-22T17:49:50.625Z,7.23
2018-08-22T17:52:16.599Z,8.20
2018-08-22T17:54:42.568Z,7.20
2018-08-22T17:57:08.544Z,7.10
2018-08-22T17:59:34.550Z,7.73
2018-08-22T18:02:00.510Z,7.40
2018-08-22T18:04:26.530Z,8.90
2018-08-22T18:06:52.527Z,7.90
2018-08-22T18:09:19.256Z,7.10
2018-08-22T18:11:45.196Z,8.03
2018-08-22T18:14:11.201Z,8.37
2018-08-22T18:16:37.182Z,7.57
2018-08-22T18:19:03.178Z,7.83
2018-08-22T18:21:29.141Z,7.33
2018-08-22T18:23:55.110Z,8.13
2018-08-22T18:26:21.819Z,7.57
2018-08-22T18:28:47.781Z,7.73
2018-08-22T18:31:13.745Z,7.87
2018-08-22T18:33:39.706Z,7.37
2018-08-22T18:36:05.715Z,8.30
2018-08-22T18:38:31.666Z,7.77
2018-08-22T18:40:57.658Z,7.43
2018-08-22T18:43:23.613Z,7.97
2018-08-22T18:45:49.596Z,8.23
2018-08-22T18:48:15.590Z,7.93
2018-08-22T18:50:41.547Z,7.30
2018-08-22T18:53:07.525Z,7.63
2018-08-22T18:55:33.542Z,7.73
2018-08-22T18:57:59.503Z,7.73
2018-08-22T19:00:25.479Z,7.07
2018-08-22T19:02:51.497Z,7.57
2018-08-22T19:05:17.522Z,8.27
2018-08-22T19:07:44.241Z,7.73
2018-08-22T19:10:10.220Z,6.57
2018-08-22T19:12:36.174Z,7.77
2018-08-22T19:15:02.165Z,7.63
2018-08-22T19:17:28.219Z,7.80
2018-08-22T19:19:54.887Z,7.77
2018-08-22T19:22:21.588Z,7.70
2018-08-22T19:24:47.632Z,7.20
2018-08-22T19:27:13.568Z,7.63
2018-08-22T19:29:40.325Z,7.67
2018-08-22T19:32:06.287Z,6.90
2018-08-22T19:34:32.232Z,6.80
2018-08-22T19:36:58.218Z,6.60
2018-08-22T19:39:24.165Z,6.10
2018-08-22T19:41:50.140Z,6.90
2018-08-22T19:44:16.101Z,6.80
2018-08-22T19:46:42.084Z,6.33
2018-08-22T19:49:08.100Z,5.97
2018-08-22T19:51:34.067Z,6.23
2018-08-22T19:54:00.016Z,5.57
2018-08-22T19:56:26.025Z,6.00
2018-08-22T19:58:51.972Z,5.23
2018-08-22T20:01:18.677Z,5.70
2018-08-22T20:03:44.677Z,5.30
2018-08-22T20:06:10.619Z,5.43
2018-08-22T20:08:36.600Z,5.87
2018-08-22T20:11:02.553Z,5.30
2018-08-22T20:13:28.544Z,5.80
2018-08-22T20:15:55.252Z,4.83
2018-08-22T20:18:21.227Z,4.70
2018-08-22T20:20:47.266Z,5.63
2018-08-22T20:23:13.326Z,5.17
2018-08-22T20:25:40.064Z,5.50
2018-08-22T20:28:06.048Z,5.20
2018-08-22T20:30:32.086Z,5.20
2018-08-22T20:32:58.027Z,4.80
2018-08-22T20:35:24.017Z,5.40
2018-08-22T20:37:49.978Z,5.13
2018-08-22T20:40:15.952Z,5.03
2018-08-22T20:42:42.019Z,5.07
2018-08-22T20:45:08.686Z,5.10
2018-08-22T20:47:35.405Z,5.20
2018-08-22T20:50:01.402Z,4.90
2018-08-22T20:52:27.349Z,5.47
2018-08-22T20:54:54.093Z,4.53
2018-08-22T20:57:20.262Z,5.20
2018-08-22T20:59:46.332Z,5.13
2018-08-22T21:02:12.324Z,5.03
2018-08-22T21:04:38.303Z,5.40
2018-08-22T21:07:04.311Z,5.10
2018-08-22T21:09:30.282Z,4.90
2018-08-22T21:11:56.251Z,5.10
2018-08-22T21:14:22.215Z,5.70
2018-08-22T21:16:48.199Z,5.93
2018-08-22T21:19:14.174Z,5.43
2018-08-22T21:21:40.143Z,5.67
2018-08-22T21:24:06.145Z,5.30
2018-08-22T21:26:32.108Z,6.23
2018-08-22T21:28:58.134Z,5.37
2018-08-22T21:31:24.091Z,6.20
2018-08-22T21:33:50.084Z,4.90
2018-08-22T21:36:16.788Z,5.17
2018-08-22T21:38:42.776Z,5.93
2018-08-22T21:41:08.734Z,5.60
2018-08-22T21:43:34.685Z,5.50
2018-08-22T21:46:00.686Z,5.67
2018-08-22T21:48:26.655Z,5.53
2018-08-22T21:50:52.668Z,6.20
2018-08-22T21:53:19.358Z,6.13
2018-08-22T21:55:45.319Z,6.17
2018-08-22T21:58:11.409Z,5.87
2018-08-22T22:00:37.401Z,6.07
2018-08-22T22:03:03.395Z,6.30
2018-08-22T22:05:31.055Z,5.97
2018-08-22T22:07:57.814Z,6.27
2018-08-22T22:10:23.838Z,5.83
2018-08-22T22:12:50.532Z,6.00
2018-08-22T22:15:16.481Z,6.27
2018-08-22T22:17:42.457Z,5.80
2018-08-22T22:20:08.399Z,5.83
2018-08-22T22:22:34.403Z,6.00
2018-08-22T22:25:00.364Z,5.70
2018-08-22T22:27:26.351Z,6.03
2018-08-22T22:29:52.305Z,6.73
2018-08-22T22:32:18.313Z,5.77
2018-08-22T22:34:44.266Z,6.13
2018-08-22T22:37:10.279Z,6.43
2018-08-22T22:39:36.231Z,6.40
2018-08-22T22:42:02.956Z,6.50
2018-08-22T22:44:28.918Z,5.33
2018-08-22T22:46:54.901Z,5.83
2018-08-22T22:49:20.840Z,6.27
2018-08-22T22:51:47.518Z,6.57
2018-08-22T22:54:13.515Z,6.40
2018-08-22T22:56:39.457Z,5.93
2018-08-22T22:59:05.440Z,6.73
2018-08-22T23:01:32.119Z,5.73
2018-08-22T23:03:58.107Z,6.83
2018-08-22T23:06:24.802Z,6.70
2018-08-22T23:08:51.406Z,7.50
2018-08-22T23:11:17.341Z,7.00
2018-08-22T23:13:44.029Z,7.00
2018-08-22T23:16:10.798Z,7.20
2018-08-22T23:18:36.820Z,7.23
2018-08-22T23:21:02.766Z,6.93
2018-08-22T23:23:28.713Z,7.20
2018-08-22T23:25:54.711Z,6.87
2018-08-22T23:28:20.677Z,6.57
2018-08-22T23:30:46.636Z,6.80
2018-08-22T23:33:12.632Z,7.87
2018-08-22T23:35:38.585Z,7.00
2018-08-22T23:38:04.561Z,7.73
2018-08-22T23:40:30.527Z,8.27
2018-08-22T23:42:56.470Z,8.80
2018-08-22T23:45:22.474Z,8.47
2018-08-22T23:47:48.468Z,8.53
2018-08-22T23:50:14.417Z,10.80
2018-08-22T23:52:40.395Z,9.50
2018-08-22T23:55:06.340Z,10.73
2018-08-22T23:57:32.318Z,9.23
2018-08-22T23:59:58.273Z,9.50
